x

South Brooks (46132) Wave Buoy

1:00am - Sun 26th Feb 2017 All times are PST. -8 hours from GMT.

  • Sig Wave height 9.8ft
  • Peak Period 16s
  • Wind
    4mph, 11mph gusts
  • Sea Temp 47°f
  • Air Temp 41°f
  • Sea Pressure 1007.2mb
  • South Brooks
  • South Brooks

More Historic Weather Station data

Upgrade to MSW Pro to gain access to the past 30 days of data for over 8000 Wavebouys and Weather Stations around the globe.

Join Pro

Comparision Forecast

View Surf forecast
   
Sun 02/26 1:00am 10ft 16s 4 11 mph 1007.2mb 47f 41f
12:00am 10ft 16s 2 7 mph 1007.6mb 47f 42f
Sat 02/25 11:00pm 10ft 17s 11 16 mph 1007.9mb 47f 43f
10:00pm 10ft 15s 18 27 mph 1008.7mb 47f 44f
9:00pm 9ft 16s 11 25 mph 1009.7mb 47f 43f
8:00pm 9ft 17s 16 22 mph 1010.5mb 47f 43f
7:00pm 9ft 14s 18 27 mph 1011.5mb 47f 42f
6:00pm 8ft 14s 13 25 mph 1012.7mb 47f 43f
5:00pm 7.5ft 17s 11 22 mph 1014.3mb 47f 43f
4:00pm 6.5ft 17s 11 20 mph 1016.4mb 47f 43f
3:00pm 7ft 13s 9 16 mph 1017.7mb 47f 42f
2:00pm 6ft 18s 9 16 mph 1019.4mb 47f 43f
1:00pm 6ft 14s 7 13 mph 1021mb 47f 43f
12:00pm 6ft 12s 9 13 mph 1022.2mb 47f 43f
11:00am 5.5ft 13s 7 11 mph 1022.6mb 47f 43f
10:00am 6ft 14s 9 16 mph 1023.6mb 47f 43f
9:00am 6ft 13s 7 13 mph 1024mb 47f 42f
8:00am 6ft 14s 4 11 mph 1024.4mb 47f 43f
7:00am 6ft 14s 4 9 mph 1024.7mb 47f 43f
6:00am 7ft 14s 4 13 mph 1025.2mb 47f 43f
5:00am 6.5ft 14s 4 11 mph 1025.4mb 47f 43f
4:00am 6.5ft 14s 4 11 mph 1025.8mb 46f 43f
3:00am 6.5ft 14s 4 11 mph 1026mb 46f 43f
2:00am 6.5ft 14s 2 9 mph 1026.1mb 46f 43f
1:00am 7ft 14s 2 7 mph 1026.2mb 47f 43f
12:00am 7ft 14s 2 7 mph 1026.4mb 47f 43f
Fri 02/24 11:00pm 6.5ft 15s 2 7 mph 1026.4mb 47f 44f
10:00pm 7.5ft 14s 2 4 mph 1026.3mb 47f 44f
9:00pm 7ft 14s 2 9 mph 1026mb 47f 44f
8:00pm 7ft 14s 4 9 mph 1025.7mb 47f 43f
7:00pm 7ft 14s 2 9 mph 1025.3mb 47f 43f
6:00pm 7ft 14s 4 7 mph 1024.6mb 47f 42f
5:00pm 7ft 15s 2 4 mph 1024.3mb 47f 43f
4:00pm 6.5ft 14s 2 4 mph 1023.9mb 47f 43f
3:00pm 6.5ft 14s 2 7 mph 1023.1mb 47f 42f
2:00pm 6.5ft 14s 4 11 mph 1022.3mb 47f 42f
1:00pm 7ft 15s 4 9 mph 1021.9mb 47f 41f
12:00pm 7ft 15s 9 16 mph 1021.3mb 47f 40f
11:00am 6ft 14s 9 18 mph 1020.6mb 47f 39f
10:00am 6ft 14s 9 16 mph 1019.8mb 47f 40f
9:00am 5.5ft 15s 2 9 mph 1019.2mb 47f 38f
8:00am 5.5ft 15s 4 11 mph 1018.2mb 47f 38f
7:00am 5ft 14s 7 13 mph 1017.8mb 47f 37f
6:00am 5.5ft 15s 4 11 mph 1017.8mb 47f 38f
5:00am 5ft 14s 4 9 mph 1017.5mb 47f 40f
4:00am 5ft 16s 2 7 mph 1018mb 47f 39f
3:00am 5.5ft 15s 2 9 mph 1018.4mb 47f 39f
2:00am 5.5ft 15s 2 7 mph 1019mb 47f 39f
1:00am 6ft 16s 2 7 mph 1019.4mb 47f 38f
12:00am 5.5ft 16s 2 9 mph 1019.9mb 47f 41f
Thu 02/23 11:00pm 6ft 15s 9 16 mph 1020.5mb 47f 40f
10:00pm 6ft 16s 9 18 mph 1021mb 47f 39f
9:00pm 6ft 16s 11 18 mph 1021.7mb 47f 39f
8:00pm 5.5ft 16s 11 18 mph 1022.3mb 47f 40f
7:00pm 6.5ft 16s 13 18 mph 1022.9mb 47f 40f
6:00pm 6ft 16s 9 18 mph 1023.6mb 47f 40f
5:00pm 6ft 9s 11 18 mph 1024mb 47f 42f
4:00pm 6ft 16s 9 18 mph 1024.3mb 47f 43f
3:00pm 6ft 10s 7 16 mph 1024.8mb 47f 42f
2:00pm 5.5ft 9s 11 20 mph 1024.9mb 47f 42f
1:00pm 6ft 10s 11 18 mph 1024.9mb 47f 43f
12:00pm 6ft 9s 13 20 mph 1025.4mb 47f 43f
11:00am 6ft 9s 16 22 mph 1025.8mb 47f 43f
10:00am 6ft 10s 13 20 mph 1026.1mb 47f 42f
9:00am 7ft 10s 13 22 mph 1025.9mb 47f 42f
8:00am 6.5ft 10s 9 18 mph 1025.5mb 47f 42f
7:00am 6ft 9s 7 11 mph 1025.3mb 47f 42f
6:00am 7ft 9s 7 16 mph 1025.2mb 47f 42f
5:00am 7ft 10s 4 11 mph 1025.3mb 47f 42f
4:00am 7ft 10s 11 20 mph 1025.3mb 47f 42f
3:00am 7ft 8s 7 16 mph 1025.5mb 47f 42f
2:00am 7ft 8s 13 20 mph 1025.4mb 47f 42f